Time,TemperatureF,DewpointF,PressureIn,WindDirection,WindDirectionDegrees,WindSpeedMPH,WindSpeedGustMPH,Humidity,HourlyPrecipIn,Conditions,Clouds,dailyrainin,SoftwareType,DateUTC
2013-09-29 00:11:00,42.6,41.0,30.26,ENE,72,0.0,0.0,95,0.00,,,0.00,weatherlink.com 1.10,2013-09-29 04:11:00,
2013-09-29 00:27:00,41.9,41.0,30.27,ENE,72,0.0,0.0,95,0.00,,,0.00,weatherlink.com 1.10,2013-09-29 04:27:00,
2013-09-29 00:43:00,41.7,40.0,30.27,ENE,72,0.0,0.0,95,0.00,,,0.00,weatherlink.com 1.10,2013-09-29 04:43:00,
2013-09-29 00:57:00,41.5,40.0,30.26,ENE,72,0.0,0.0,95,0.00,,,0.00,weatherlink.com 1.10,2013-09-29 04:57:00,
2013-09-29 01:13:00,41.4,40.0,30.26,ENE,72,0.0,0.0,95,0.00,,,0.00,weatherlink.com 1.10,2013-09-29 05:13:00,
2013-09-29 01:27:00,41.1,40.0,30.26,ENE,72,0.0,0.0,95,0.00,,,0.00,weatherlink.com 1.10,2013-09-29 05:27:00,
2013-09-29 01:43:00,40.9,40.0,30.26,ENE,72,0.0,0.0,95,0.00,,,0.00,weatherlink.com 1.10,2013-09-29 05:43:00,
2013-09-29 01:58:00,40.8,40.0,30.25,ENE,72,0.0,0.0,95,0.00,,,0.00,weatherlink.com 1.10,2013-09-29 05:58:00,
2013-09-29 02:13:00,41.1,40.0,30.25,ENE,72,0.0,1.0,96,0.00,,,0.00,weatherlink.com 1.10,2013-09-29 06:13:00,
2013-09-29 02:27:00,41.3,40.0,30.24,ENE,72,0.0,0.0,96,0.00,,,0.00,weatherlink.com 1.10,2013-09-29 06:27:00,
2013-09-29 02:43:00,41.2,40.0,30.24,ENE,72,0.0,0.0,96,0.00,,,0.00,weatherlink.com 1.10,2013-09-29 06:43:00,
2013-09-29 02:58:00,41.1,40.0,30.24,ENE,72,0.0,1.0,96,0.00,,,0.00,weatherlink.com 1.10,2013-09-29 06:58:00,
2013-09-29 03:14:00,41.0,40.0,30.23,ENE,72,0.0,1.0,96,0.00,,,0.00,weatherlink.com 1.10,2013-09-29 07:14:00,
2013-09-29 03:28:00,40.7,40.0,30.23,ENE,72,0.0,0.0,96,0.00,,,0.00,weatherlink.com 1.10,2013-09-29 07:28:00,
2013-09-29 03:43:00,41.0,40.0,30.23,ENE,72,0.0,0.0,96,0.00,,,0.00,weatherlink.com 1.10,2013-09-29 07:43:00,
2013-09-29 03:58:00,41.0,40.0,30.23,ENE,72,0.0,1.0,96,0.00,,,0.00,weatherlink.com 1.10,2013-09-29 07:58:00,
2013-09-29 04:13:00,40.9,40.0,30.23,ENE,72,0.0,0.0,96,0.00,,,0.00,weatherlink.com 1.10,2013-09-29 08:13:00,
2013-09-29 04:28:00,41.0,40.0,30.23,ENE,72,0.0,0.0,96,0.00,,,0.00,weatherlink.com 1.10,2013-09-29 08:28:00,
2013-09-29 04:44:00,41.3,40.0,30.22,ENE,72,0.0,0.0,96,0.00,,,0.00,weatherlink.com 1.10,2013-09-29 08:44:00,
2013-09-29 04:58:00,41.9,41.0,30.23,ENE,72,0.0,1.0,96,0.00,,,0.00,weatherlink.com 1.10,2013-09-29 08:58:00,
2013-09-29 05:13:00,42.5,42.0,30.22,ENE,72,0.0,1.0,96,0.00,,,0.00,weatherlink.com 1.10,2013-09-29 09:13:00,
2013-09-29 05:29:00,42.5,42.0,30.22,ENE,72,0.0,1.0,96,0.00,,,0.00,weatherlink.com 1.10,2013-09-29 09:29:00,
2013-09-29 05:45:00,42.3,41.0,30.22,ENE,72,0.0,1.0,96,0.00,,,0.00,weatherlink.com 1.10,2013-09-29 09:45:00,
2013-09-29 05:59:00,42.1,41.0,30.23,ENE,72,0.0,0.0,96,0.00,,,0.00,weatherlink.com 1.10,2013-09-29 09:59:00,
2013-09-29 06:14:00,42.2,41.0,30.22,ENE,72,0.0,1.0,96,0.00,,,0.00,weatherlink.com 1.10,2013-09-29 10:14:00,
2013-09-29 06:30:00,42.7,42.0,30.23,ENE,72,0.0,2.0,96,0.00,,,0.00,weatherlink.com 1.10,2013-09-29 10:30:00,
2013-09-29 06:44:00,42.8,42.0,30.22,ENE,72,0.0,2.0,97,0.00,,,0.00,weatherlink.com 1.10,2013-09-29 10:44:00,
2013-09-29 06:59:00,43.7,43.0,30.23,ENE,72,0.0,2.0,96,0.00,,,0.00,weatherlink.com 1.10,2013-09-29 10:59:00,
2013-09-29 07:14:00,43.9,43.0,30.23,ENE,72,0.0,1.0,96,0.00,,,0.00,weatherlink.com 1.10,2013-09-29 11:14:00,
2013-09-29 07:30:00,44.6,44.0,30.23,ENE,72,0.0,1.0,97,0.00,,,0.00,weatherlink.com 1.10,2013-09-29 11:30:00,
2013-09-29 07:44:00,47.1,46.0,30.23,ENE,72,0.0,2.0,97,0.00,,,0.00,weatherlink.com 1.10,2013-09-29 11:44:00,
2013-09-29 08:00:00,49.5,49.0,30.24,ENE,59,2.0,2.0,97,0.00,,,0.00,weatherlink.com 1.10,2013-09-29 12:00:00,
2013-09-29 08:14:00,50.8,50.0,30.23,ENE,58,0.0,2.0,97,0.00,,,0.00,weatherlink.com 1.10,2013-09-29 12:14:00,
2013-09-29 08:30:00,52.5,52.0,30.24,NNE,20,0.0,3.0,97,0.00,,,0.00,weatherlink.com 1.10,2013-09-29 12:30:00,
2013-09-29 08:44:00,53.9,53.0,30.24,NE,36,0.0,2.0,97,0.00,,,0.00,weatherlink.com 1.10,2013-09-29 12:44:00,
2013-09-29 09:05:00,55.4,55.0,30.24,NE,49,0.0,2.0,97,0.00,,,0.00,weatherlink.com 1.10,2013-09-29 13:05:00,
2013-09-29 09:16:00,55.6,55.0,30.24,ENE,78,0.0,3.0,97,0.00,,,0.00,weatherlink.com 1.10,2013-09-29 13:16:00,
2013-09-29 09:30:00,56.4,56.0,30.24,ENE,71,0.0,6.0,97,0.00,,,0.00,weatherlink.com 1.10,2013-09-29 13:30:00,
2013-09-29 09:46:00,58.1,54.0,30.24,SSE,166,2.0,6.0,87,0.00,,,0.00,weatherlink.com 1.10,2013-09-29 13:46:00,
2013-09-29 10:05:00,60.4,55.0,30.23,NE,50,2.0,7.0,83,0.01,,,0.01,weatherlink.com 1.10,2013-09-29 14:05:00,
2013-09-29 10:16:00,61.9,54.0,30.23,ENE,58,1.0,6.0,76,0.01,,,0.01,weatherlink.com 1.10,2013-09-29 14:16:00,
2013-09-29 10:31:00,62.4,54.0,30.23,North,1,2.0,5.0,75,0.01,,,0.01,weatherlink.com 1.10,2013-09-29 14:31:00,
2013-09-29 10:45:00,63.2,54.0,30.22,ESE,115,3.0,6.0,72,0.01,,,0.01,weatherlink.com 1.10,2013-09-29 14:45:00,
2013-09-29 11:05:00,64.2,54.0,30.22,NE,49,3.0,4.0,70,0.00,,,0.01,weatherlink.com 1.10,2013-09-29 15:05:00,
2013-09-29 11:16:00,64.8,54.0,30.21,ESE,116,1.0,7.0,69,0.00,,,0.01,weatherlink.com 1.10,2013-09-29 15:16:00,
2013-09-29 11:32:00,65.1,53.0,30.21,NE,39,4.0,5.0,66,0.00,,,0.01,weatherlink.com 1.10,2013-09-29 15:32:00,
2013-09-29 11:46:00,65.2,53.0,30.21,NE,41,2.0,5.0,66,0.00,,,0.01,weatherlink.com 1.10,2013-09-29 15:46:00,
2013-09-29 12:05:00,65.6,54.0,30.20,East,89,1.0,6.0,66,0.00,,,0.01,weatherlink.com 1.10,2013-09-29 16:05:00,
2013-09-29 12:17:00,65.5,53.0,30.20,NE,39,2.0,7.0,65,0.00,,,0.01,weatherlink.com 1.10,2013-09-29 16:17:00,
2013-09-29 12:31:00,65.5,55.0,30.20,NE,38,2.0,5.0,69,0.00,,,0.01,weatherlink.com 1.10,2013-09-29 16:31:00,
2013-09-29 12:47:00,65.7,54.0,30.20,ESE,117,3.0,7.0,66,0.00,,,0.01,weatherlink.com 1.10,2013-09-29 16:47:00,
2013-09-29 13:05:00,65.8,54.0,30.19,NE,46,0.0,5.0,67,0.00,,,0.01,weatherlink.com 1.10,2013-09-29 17:05:00,
2013-09-29 13:17:00,65.9,55.0,30.19,NE,49,4.0,4.0,67,0.00,,,0.01,weatherlink.com 1.10,2013-09-29 17:17:00,
2013-09-29 13:32:00,66.4,55.0,30.18,North,359,3.0,6.0,66,0.00,,,0.01,weatherlink.com 1.10,2013-09-29 17:32:00,
2013-09-29 13:47:00,66.5,55.0,30.18,NE,50,2.0,6.0,66,0.00,,,0.01,weatherlink.com 1.10,2013-09-29 17:47:00,
2013-09-29 14:05:00,67.2,55.0,30.17,NE,54,1.0,4.0,65,0.00,,,0.01,weatherlink.com 1.10,2013-09-29 18:05:00,
2013-09-29 14:17:00,66.6,55.0,30.17,SE,141,1.0,3.0,66,0.00,,,0.01,weatherlink.com 1.10,2013-09-29 18:17:00,
2013-09-29 14:32:00,65.6,54.0,30.17,NE,43,1.0,6.0,67,0.00,,,0.01,weatherlink.com 1.10,2013-09-29 18:32:00,
2013-09-29 14:47:00,65.8,53.0,30.16,NNE,27,3.0,8.0,63,0.00,,,0.01,weatherlink.com 1.10,2013-09-29 18:47:00,
2013-09-29 15:05:00,64.8,51.0,30.16,NNE,30,1.0,5.0,61,0.00,,,0.01,weatherlink.com 1.10,2013-09-29 19:05:00,
2013-09-29 15:17:00,65.6,49.0,30.16,North,9,3.0,7.0,56,0.00,,,0.01,weatherlink.com 1.10,2013-09-29 19:17:00,
2013-09-29 15:33:00,64.5,50.0,30.16,NNE,27,1.0,5.0,59,0.00,,,0.01,weatherlink.com 1.10,2013-09-29 19:33:00,
2013-09-29 15:47:00,64.9,51.0,30.15,East,82,1.0,4.0,62,0.00,,,0.01,weatherlink.com 1.10,2013-09-29 19:47:00,
2013-09-29 16:05:00,64.7,52.0,30.15,ESE,103,0.0,3.0,64,0.00,,,0.01,weatherlink.com 1.10,2013-09-29 20:05:00,
2013-09-29 16:17:00,65.4,51.0,30.15,NE,48,2.0,4.0,61,0.00,,,0.01,weatherlink.com 1.10,2013-09-29 20:17:00,
2013-09-29 16:33:00,65.0,52.0,30.15,NE,45,2.0,4.0,63,0.00,,,0.01,weatherlink.com 1.10,2013-09-29 20:33:00,
2013-09-29 16:48:00,64.2,53.0,30.15,NNW,347,1.0,4.0,66,0.00,,,0.01,weatherlink.com 1.10,2013-09-29 20:48:00,
2013-09-29 17:03:00,63.5,53.0,30.14,NNE,17,1.0,4.0,69,0.00,,,0.01,weatherlink.com 1.10,2013-09-29 21:03:00,
2013-09-29 17:19:00,64.1,55.0,30.14,ENE,66,1.0,7.0,72,0.00,,,0.01,weatherlink.com 1.10,2013-09-29 21:19:00,
2013-09-29 17:33:00,64.3,55.0,30.14,NE,54,0.0,3.0,73,0.00,,,0.01,weatherlink.com 1.10,2013-09-29 21:33:00,
2013-09-29 17:49:00,63.1,55.0,30.14,ENE,68,0.0,4.0,76,0.00,,,0.01,weatherlink.com 1.10,2013-09-29 21:49:00,
2013-09-29 18:05:00,62.5,55.0,30.14,NNE,29,2.0,6.0,77,0.00,,,0.01,weatherlink.com 1.10,2013-09-29 22:05:00,
2013-09-29 18:19:00,61.4,56.0,30.14,East,84,0.0,3.0,81,0.00,,,0.01,weatherlink.com 1.10,2013-09-29 22:19:00,
2013-09-29 18:33:00,60.4,55.0,30.14,NE,38,0.0,3.0,83,0.00,,,0.01,weatherlink.com 1.10,2013-09-29 22:33:00,
2013-09-29 18:49:00,59.3,55.0,30.14,NE,44,0.0,1.0,85,0.00,,,0.01,weatherlink.com 1.10,2013-09-29 22:49:00,
2013-09-29 19:05:00,58.7,55.0,30.15,NE,44,0.0,1.0,87,0.00,,,0.01,weatherlink.com 1.10,2013-09-29 23:05:00,
2013-09-29 19:19:00,58.4,55.0,30.14,NNE,28,1.0,3.0,88,0.00,,,0.01,weatherlink.com 1.10,2013-09-29 23:19:00,
2013-09-29 19:34:00,57.8,55.0,30.14,NNE,20,0.0,1.0,89,0.00,,,0.01,weatherlink.com 1.10,2013-09-29 23:34:00,
2013-09-29 19:48:00,57.4,55.0,30.15,NNE,22,0.0,1.0,90,0.00,,,0.01,weatherlink.com 1.10,2013-09-29 23:48:00,
2013-09-29 20:05:00,57.5,55.0,30.14,NNE,22,0.0,2.0,91,0.00,,,0.01,weatherlink.com 1.10,2013-09-30 00:05:00,
2013-09-29 20:19:00,57.7,55.0,30.14,NNE,22,0.0,1.0,92,0.00,,,0.01,weatherlink.com 1.10,2013-09-30 00:19:00,
2013-09-29 20:35:00,58.7,57.0,30.14,NE,49,1.0,4.0,93,0.00,,,0.01,weatherlink.com 1.10,2013-09-30 00:35:00,
2013-09-29 20:49:00,58.8,57.0,30.13,ENE,60,0.0,2.0,92,0.00,,,0.01,weatherlink.com 1.10,2013-09-30 00:49:00,
2013-09-29 21:05:00,58.9,57.0,30.12,East,94,1.0,3.0,92,0.00,,,0.01,weatherlink.com 1.10,2013-09-30 01:05:00,
2013-09-29 21:19:00,59.1,57.0,30.12,ENE,61,0.0,3.0,92,0.00,,,0.01,weatherlink.com 1.10,2013-09-30 01:19:00,
2013-09-29 21:35:00,59.3,57.0,30.12,East,89,0.0,2.0,92,0.00,,,0.01,weatherlink.com 1.10,2013-09-30 01:35:00,
2013-09-29 21:49:00,59.3,57.0,30.11,ESE,106,0.0,3.0,91,0.00,,,0.01,weatherlink.com 1.10,2013-09-30 01:49:00,
2013-09-29 22:05:00,59.3,57.0,30.12,East,79,2.0,3.0,91,0.00,,,0.01,weatherlink.com 1.10,2013-09-30 02:05:00,
2013-09-29 22:19:00,59.3,57.0,30.12,East,89,0.0,2.0,91,0.00,,,0.01,weatherlink.com 1.10,2013-09-30 02:19:00,
2013-09-29 22:35:00,59.4,57.0,30.12,NNE,33,1.0,3.0,92,0.00,,,0.01,weatherlink.com 1.10,2013-09-30 02:35:00,
2013-09-29 22:51:00,59.3,57.0,30.12,NNE,19,1.0,2.0,92,0.00,,,0.01,weatherlink.com 1.10,2013-09-30 02:51:00,
2013-09-29 23:05:00,59.2,57.0,30.11,ENE,58,0.0,1.0,92,0.00,,,0.01,weatherlink.com 1.10,2013-09-30 03:05:00,
2013-09-29 23:20:00,59.1,57.0,30.11,NE,51,0.0,1.0,93,0.00,,,0.01,weatherlink.com 1.10,2013-09-30 03:20:00,
2013-09-29 23:36:00,59.5,58.0,30.11,East,89,1.0,3.0,93,0.00,,,0.01,weatherlink.com 1.10,2013-09-30 03:36:00,
2013-09-29 23:50:00,59.6,58.0,30.11,NE,50,1.0,2.0,93,0.00,,,0.01,weatherlink.com 1.10,2013-09-30 03:50:00,